Ringgold, Louisiana
Current Conditions -  °F | °C
As of 6:14 PM on Monday 22 Dec 2014 (Local Time) from KMNE Reporting Station
Scattered Clouds Scattered Clouds  
Wind Chill: 63°   Ceiling: Unl
Heat Index: 63°   Visibility: 10mi
Dew Point: 55°   Wind: 0mph
Humidity: 77%   Direction: NA
Pressure: 29.6"   Gusts: NA
Location:  32.33°N, 93.28°W
Report Text: KMNE 230014Z AUTO 00000KT 10SM SCT050 17/13 A2960 RMK AO2
Loading
Personal Weather Stations






























Interactive Weather Map New forecast layout! Learn more

10-Day Weather Forecast

Advertisements
Track Severe Weather on mobile